Time;durP1;ratioP1;P1;durP2;ratioP2;P2;SDS_P1;SDS_P2;PMS_P1;PMS_P2;Temp;Humidity;BMP_temperature;BMP_pressure;BME280_temperature;BME280_humidity;BME280_pressure;Samples;Min_cycle;Max_cycle;Signal;HPM_P1;HPM_P2
2022/06/20 06:08:19;;;;;;;14.40;12.95;;;35.20;99.90;;;;;;6241901;22;20046;-91
2022/06/20 06:10:51;;;;;;;14.30;12.88;;;35.50;99.90;;;;;;6224414;22;20004;-92
2022/06/20 06:13:30;;;;;;;14.68;13.57;;;35.50;99.90;;;;;;6213872;22;20008;-93
2022/06/20 06:19:29;;;;;;;13.65;12.65;;;35.10;99.90;;;;;;6221050;23;20013;-93
2022/06/20 06:22:02;;;;;;;14.90;13.63;;;35.20;99.90;;;;;;6196805;23;20024;-94
2022/06/20 06:24:33;;;;;;;14.45;13.25;;;35.80;99.90;;;;;;6196578;23;20004;-93
2022/06/20 06:27:01;;;;;;;13.93;12.75;;;36.00;99.90;;;;;;6195952;23;20012;-92
2022/06/20 15:50:51;;;;;;;10.45;9.65;;;31.60;99.90;;;;;;6233965;22;20028;-92
2022/06/20 15:53:29;;;;;;;10.65;9.85;;;31.60;99.90;;;;;;6226475;22;20007;-92
2022/06/20 15:56:21;;;;;;;10.55;9.85;;;31.50;99.90;;;;;;6225503;22;20341;-91
2022/06/20 15:59:15;;;;;;;10.23;9.63;;;31.40;99.90;;;;;;6227142;22;20014;-93
2022/06/20 16:02:29;;;;;;;10.50;9.50;;;31.40;99.90;;;;;;6198762;23;20012;-91
2022/06/20 16:05:22;;;;;;;9.80;9.10;;;31.30;99.90;;;;;;6073550;23;20018;-93
2022/06/20 16:08:19;;;;;;;10.10;9.40;;;31.20;99.90;;;;;;6073566;23;20014;-92
2022/06/20 16:11:07;;;;;;;10.65;9.65;;;31.00;99.90;;;;;;6049261;23;20044;-93
2022/06/20 16:13:35;;;;;;;9.88;9.27;;;30.90;99.90;;;;;;6073318;23;20061;-92
2022/06/20 16:16:28;;;;;;;9.70;9.00;;;30.90;99.90;;;;;;6073535;23;20006;-93
2022/06/20 16:19:07;;;;;;;9.38;8.63;;;30.80;99.90;;;;;;6049304;23;20007;-92
2022/06/20 16:21:41;;;;;;;9.52;8.73;;;30.70;99.90;;;;;;6049085;23;20018;-92
2022/06/20 16:24:30;;;;;;;9.95;9.15;;;30.60;99.90;;;;;;6075338;23;20010;-91
2022/06/20 16:26:57;;;;;;;10.15;9.50;;;30.60;99.90;;;;;;6049374;23;20010;-91
2022/06/20 16:29:32;;;;;;;9.70;8.90;;;30.50;99.90;;;;;;6073683;23;20010;-92
2022/06/20 16:32:13;;;;;;;9.43;8.73;;;30.40;99.90;;;;;;6050110;23;20459;-93
2022/06/20 16:35:00;;;;;;;9.00;8.50;;;30.40;99.90;;;;;;6097299;23;20418;-93
2022/06/20 16:37:30;;;;;;;9.27;8.40;;;30.30;99.90;;;;;;6049133;23;20087;-92
2022/06/20 16:40:11;;;;;;;9.20;8.50;;;30.10;99.90;;;;;;6077115;23;20006;-92
2022/06/20 16:43:02;;;;;;;8.98;8.18;;;30.10;99.90;;;;;;6223871;23;20023;-91
2022/06/20 16:45:37;;;;;;;8.88;8.02;;;30.00;99.90;;;;;;6196314;23;20015;-92
2022/06/20 16:48:22;;;;;;;8.20;7.50;;;30.00;99.90;;;;;;6196184;23;20456;-92
2022/06/20 16:51:16;;;;;;;9.27;8.40;;;29.80;99.90;;;;;;6195683;23;20019;-92
2022/06/20 16:54:07;;;;;;;8.32;7.82;;;29.60;99.90;;;;;;6196329;23;20008;-92
2022/06/20 16:56:43;;;;;;;8.60;7.80;;;29.50;99.90;;;;;;6195911;23;20004;-90
2022/06/20 16:59:29;;;;;;;7.60;7.00;;;29.40;99.90;;;;;;6196206;23;20012;-90
2022/06/20 17:02:06;;;;;;;7.80;7.10;;;29.20;99.90;;;;;;6196268;23;20461;-91
2022/06/20 17:04:54;;;;;;;10.68;7.10;;;29.10;99.90;;;;;;6196483;23;20552;-92
2022/06/20 17:07:36;;;;;;;8.20;7.40;;;29.00;99.90;;;;;;6195984;23;20410;-91
2022/06/20 17:10:29;;;;;;;9.07;7.85;;;28.90;99.90;;;;;;6195941;23;20023;-90
2022/06/20 17:13:22;;;;;;;9.13;7.30;;;28.70;99.90;;;;;;6196386;23;20012;-90
2022/06/20 17:16:13;;;;;;;7.75;6.60;;;28.80;99.90;;;;;;6195425;23;20008;-91
2022/06/20 17:19:01;;;;;;;7.88;6.18;;;28.60;99.90;;;;;;6170757;23;20012;-91
2022/06/20 17:21:57;;;;;;;28.85;9.70;;;28.50;99.90;;;;;;6195831;23;20016;-91
2022/06/20 17:24:39;;;;;;;8.25;6.22;;;28.40;99.90;;;;;;6196579;23;20004;-91
2022/06/20 17:27:26;;;;;;;15.00;7.28;;;28.30;99.90;;;;;;6195892;23;20012;-90
2022/06/20 17:30:02;;;;;;;7.35;6.65;;;28.20;99.90;;;;;;6195602;23;20012;-91
2022/06/20 17:32:46;;;;;;;13.93;7.43;;;28.00;99.90;;;;;;6196150;23;20004;-92
2022/06/20 17:35:41;;;;;;;9.98;7.00;;;27.90;99.90;;;;;;6196822;23;20087;-91
2022/06/20 17:38:28;;;;;;;9.88;7.80;;;27.80;99.90;;;;;;6197305;23;20330;-90
2022/06/20 17:41:13;;;;;;;8.55;6.43;;;27.60;99.90;;;;;;6195947;23;20019;-92
2022/06/20 17:44:18;;;;;;;8.60;6.30;;;27.50;99.90;;;;;;6196879;23;20027;-92
2022/06/20 17:46:45;;;;;;;7.68;5.75;;;27.40;99.90;;;;;;6072577;23;20038;-91
2022/06/20 17:49:28;;;;;;;12.45;6.35;;;27.30;99.90;;;;;;6072374;23;20488;-92
2022/06/20 17:52:14;;;;;;;10.20;5.90;;;27.20;99.90;;;;;;6072531;23;20018;-91
2022/06/20 17:55:01;;;;;;;8.80;6.57;;;27.20;99.90;;;;;;6073321;23;20015;-91
2022/06/20 17:57:45;;;;;;;11.57;6.88;;;27.10;99.90;;;;;;6073226;23;20392;-90
2022/06/20 18:00:17;;;;;;;10.63;7.43;;;27.00;99.90;;;;;;6049322;23;20011;-90
2022/06/20 18:03:01;;;;;;;7.82;6.90;;;27.00;99.90;;;;;;6048357;23;20029;-90
2022/06/20 18:05:38;;;;;;;11.15;7.40;;;26.90;99.90;;;;;;6049336;23;20050;-92
2022/06/20 18:08:35;;;;;;;16.00;7.85;;;26.90;99.90;;;;;;6051194;23;20109;-92
2022/06/20 18:11:24;;;;;;;10.55;7.70;;;26.80;99.90;;;;;;6066974;23;20079;-91
2022/06/20 18:14:04;;;;;;;11.38;7.15;;;26.70;99.90;;;;;;6074926;23;20018;-92
2022/06/20 18:16:48;;;;;;;8.70;7.70;;;26.60;99.90;;;;;;6075110;23;20013;-92
2022/06/20 18:19:22;;;;;;;9.30;7.68;;;26.60;99.90;;;;;;6049866;23;20018;-92
2022/06/20 18:22:00;;;;;;;12.07;8.23;;;26.50;99.90;;;;;;6123927;23;20434;-91
2022/06/20 18:24:55;;;;;;;12.10;8.52;;;26.40;99.90;;;;;;6196814;23;20014;-91
2022/06/20 18:27:28;;;;;;;10.13;8.45;;;26.30;99.90;;;;;;6196839;23;20020;-91
2022/06/20 18:29:57;;;;;;;16.70;9.85;;;26.30;99.90;;;;;;6195962;23;20008;-92
2022/06/20 18:32:27;;;;;;;9.88;8.82;;;26.20;99.90;;;;;;6199551;23;20055;-91
2022/06/20 18:34:56;;;;;;;10.63;9.15;;;26.20;99.90;;;;;;6199154;23;20009;-92
2022/06/20 18:37:29;;;;;;;9.35;8.45;;;26.10;99.90;;;;;;6197632;23;20091;-92
2022/06/20 18:40:14;;;;;;;9.68;8.57;;;26.10;99.90;;;;;;6195618;23;20004;-91
2022/06/20 18:42:57;;;;;;;13.82;9.05;;;26.00;99.90;;;;;;6196580;23;20023;-92
2022/06/20 18:45:34;;;;;;;11.02;8.55;;;25.90;99.90;;;;;;6197142;23;20041;-92
2022/06/20 18:48:22;;;;;;;12.43;9.05;;;25.90;99.90;;;;;;6197340;23;20036;-92
2022/06/20 18:51:24;;;;;;;10.38;8.93;;;25.80;99.90;;;;;;6191650;23;20016;-91
2022/06/20 18:54:16;;;;;;;11.80;8.73;;;25.80;99.90;;;;;;6191952;23;20035;-93
2022/06/20 18:57:17;;;;;;;11.00;8.25;;;25.70;99.90;;;;;;6193000;23;20013;-93
2022/06/20 18:59:52;;;;;;;9.98;7.80;;;25.60;99.90;;;;;;6192112;23;20009;-91
2022/06/20 19:02:40;;;;;;;12.38;7.95;;;25.60;99.90;;;;;;6192023;23;20025;-92
2022/06/20 19:05:16;;;;;;;11.80;7.88;;;25.50;99.90;;;;;;6194530;23;20015;-92
2022/06/20 19:08:11;;;;;;;11.25;7.95;;;25.40;99.90;;;;;;6194410;23;20012;-93
2022/06/20 19:10:40;;;;;;;8.27;7.47;;;25.40;99.90;;;;;;6194438;23;20005;-92
2022/06/20 19:13:25;;;;;;;10.45;7.75;;;25.30;99.90;;;;;;6194511;23;20066;-92
2022/06/20 19:16:18;;;;;;;11.00;7.28;;;25.30;99.90;;;;;;6194984;23;20014;-92
2022/06/20 19:19:15;;;;;;;11.48;8.30;;;25.30;99.90;;;;;;6194158;23;20066;-92
2022/06/20 19:21:51;;;;;;;10.45;7.78;;;25.30;99.90;;;;;;6194165;23;20013;-92
2022/06/20 19:24:26;;;;;;;12.80;8.52;;;25.20;99.90;;;;;;6195128;23;20005;-92
2022/06/20 19:27:07;;;;;;;14.65;8.63;;;25.20;99.90;;;;;;6194084;23;20422;-92
2022/06/20 19:29:37;;;;;;;11.23;8.48;;;25.10;99.90;;;;;;6200277;23;20008;-93
2022/06/20 19:32:15;;;;;;;11.75;8.77;;;25.10;99.90;;;;;;6203773;23;20016;-92
2022/06/20 19:34:42;;;;;;;9.75;8.68;;;25.00;99.90;;;;;;6193711;23;20081;-92
2022/06/20 19:37:14;;;;;;;14.23;8.77;;;25.00;99.90;;;;;;6191842;23;20369;-92
2022/06/20 19:39:59;;;;;;;10.60;8.80;;;24.90;99.90;;;;;;6191916;23;20039;-92
2022/06/20 19:42:34;;;;;;;12.48;9.25;;;24.90;99.90;;;;;;6191848;23;20074;-90
2022/06/20 19:45:20;;;;;;;13.70;9.55;;;24.90;99.90;;;;;;6191902;23;20005;-90
2022/06/20 19:47:48;;;;;;;9.82;8.60;;;24.90;99.90;;;;;;6191946;23;20009;-89
2022/06/20 19:50:24;;;;;;;11.07;9.68;;;24.80;99.90;;;;;;6191244;23;20043;-90
2022/06/20 19:53:00;;;;;;;18.85;11.02;;;24.80;99.90;;;;;;6191887;23;20016;-90
2022/06/20 19:55:47;;;;;;;14.52;9.85;;;24.80;99.90;;;;;;6192061;23;20430;-90
2022/06/20 19:58:29;;;;;;;14.88;9.88;;;24.70;99.90;;;;;;6191508;23;20338;-90
2022/06/20 20:01:02;;;;;;;12.65;10.23;;;24.70;99.90;;;;;;6194171;23;20009;-90
2022/06/20 20:03:29;;;;;;;17.08;10.38;;;24.70;99.90;;;;;;6193410;23;20016;-91
2022/06/20 20:06:00;;;;;;;11.93;9.90;;;24.70;99.90;;;;;;6191850;23;20009;-90
2022/06/20 20:08:41;;;;;;;12.90;10.18;;;24.60;99.90;;;;;;6191604;23;20008;-90
2022/06/20 20:11:22;;;;;;;14.20;10.35;;;24.50;99.90;;;;;;6192057;23;20011;-90
2022/06/20 20:14:02;;;;;;;13.73;10.63;;;24.50;99.90;;;;;;6191606;23;20095;-90
2022/06/20 20:16:50;;;;;;;12.13;10.82;;;24.50;99.90;;;;;;6191685;23;20032;-90
2022/06/20 20:19:26;;;;;;;12.82;10.85;;;24.50;99.90;;;;;;6191613;23;20020;-91
2022/06/20 20:22:34;;;;;;;14.00;10.35;;;24.50;99.90;;;;;;6193197;23;20013;-90
2022/06/20 20:25:28;;;;;;;16.23;10.80;;;24.40;99.90;;;;;;6078565;23;20010;-90
2022/06/20 20:28:16;;;;;;;17.00;11.32;;;24.40;99.90;;;;;;6078068;23;20109;-90
2022/06/20 20:31:27;;;;;;;14.55;10.88;;;24.40;99.90;;;;;;6126394;23;20014;-90
2022/06/20 20:34:23;;;;;;;12.85;11.52;;;24.40;99.90;;;;;;6039619;23;20034;-90
2022/06/20 20:37:10;;;;;;;15.55;12.13;;;24.40;99.90;;;;;;5927213;24;20013;-90
2022/06/20 20:40:03;;;;;;;18.30;13.38;;;24.30;99.90;;;;;;5904617;24;20512;-91
2022/06/20 20:42:40;;;;;;;13.40;12.00;;;24.30;99.90;;;;;;5904641;24;20032;-90
2022/06/20 20:45:22;;;;;;;16.05;12.63;;;24.30;99.90;;;;;;5904785;24;20021;-91
2022/06/20 20:47:54;;;;;;;17.17;12.93;;;24.20;99.90;;;;;;5905817;24;20017;-90
2022/06/20 20:50:31;;;;;;;15.30;12.40;;;24.20;99.90;;;;;;5905011;24;20086;-90
2022/06/20 20:53:01;;;;;;;19.67;12.38;;;24.20;99.90;;;;;;5927233;24;20013;-90
2022/06/20 20:55:35;;;;;;;18.00;12.88;;;24.20;99.90;;;;;;5959862;23;20094;-88
2022/06/20 20:58:35;;;;;;;20.20;13.70;;;24.20;99.90;;;;;;6012316;23;20068;-89
2022/06/20 21:01:11;;;;;;;16.30;12.23;;;24.10;99.90;;;;;;5983848;23;20008;-90
2022/06/20 21:03:42;;;;;;;18.77;12.98;;;24.10;99.90;;;;;;6020915;23;20023;-90
2022/06/20 21:06:22;;;;;;;16.33;12.95;;;24.00;99.90;;;;;;6101698;23;20045;-90
2022/06/20 21:08:54;;;;;;;15.63;12.98;;;24.00;99.90;;;;;;6101389;23;20009;-89
2022/06/20 21:11:27;;;;;;;16.85;13.52;;;24.00;99.90;;;;;;6101284;23;20547;-90
2022/06/20 21:14:02;;;;;;;17.15;13.60;;;24.00;99.90;;;;;;6160633;23;20015;-90
2022/06/20 21:16:38;;;;;;;17.67;12.88;;;24.00;99.90;;;;;;6195971;23;20449;-91
2022/06/20 21:19:18;;;;;;;18.23;12.90;;;24.00;99.90;;;;;;6196142;23;20012;-90
2022/06/20 21:21:48;;;;;;;19.77;13.75;;;23.90;99.90;;;;;;6195701;23;20020;-90
2022/06/20 21:24:27;;;;;;;18.83;13.23;;;23.90;99.90;;;;;;6221215;23;20462;-89
2022/06/20 21:26:58;;;;;;;20.27;13.93;;;23.90;99.90;;;;;;6195859;23;20327;-89
2022/06/20 21:29:28;;;;;;;19.45;13.88;;;23.90;99.90;;;;;;6195898;23;20004;-89
2022/06/20 21:32:08;;;;;;;16.58;13.18;;;23.90;99.90;;;;;;6196212;23;20004;-89
2022/06/20 21:34:40;;;;;;;19.10;12.90;;;23.80;99.90;;;;;;6196045;23;20019;-90
2022/06/20 21:37:18;;;;;;;18.25;13.38;;;23.90;99.90;;;;;;6196093;23;20016;-90
2022/06/20 21:39:58;;;;;;;15.52;13.50;;;23.80;99.90;;;;;;6196370;23;20087;-90
2022/06/20 21:42:43;;;;;;;18.38;13.52;;;23.80;99.90;;;;;;6196336;23;20016;-89
2022/06/20 21:45:24;;;;;;;16.65;13.85;;;23.80;99.90;;;;;;6203291;23;20031;-90
2022/06/20 21:48:06;;;;;;;23.95;14.75;;;23.80;99.90;;;;;;6203218;23;20040;-90
2022/06/20 21:50:46;;;;;;;16.02;14.32;;;23.80;99.90;;;;;;6192049;23;20438;-89
2022/06/20 21:53:36;;;;;;;19.67;14.68;;;23.80;99.90;;;;;;6190816;23;20012;-90
2022/06/20 21:56:08;;;;;;;17.55;12.68;;;23.70;99.90;;;;;;6190850;23;20082;-90
2022/06/20 21:58:41;;;;;;;16.23;13.55;;;23.70;99.90;;;;;;6190819;23;20079;-90
2022/06/20 22:01:08;;;;;;;17.98;13.60;;;23.60;99.90;;;;;;6192930;23;20008;-89
2022/06/20 22:03:44;;;;;;;19.83;15.48;;;23.60;99.90;;;;;;6192919;23;20005;-90
2022/06/20 22:06:48;;;;;;;19.10;14.27;;;23.60;99.90;;;;;;6191792;23;20075;-90
2022/06/20 22:09:21;;;;;;;19.23;13.40;;;23.50;99.90;;;;;;6190908;23;20142;-88
2022/06/20 22:11:48;;;;;;;18.08;13.82;;;23.50;99.90;;;;;;6190644;23;20009;-88
2022/06/20 22:14:16;;;;;;;20.10;13.55;;;23.40;99.90;;;;;;6190621;23;20016;-89
2022/06/20 22:16:51;;;;;;;19.17;13.85;;;23.30;99.90;;;;;;6190580;23;20013;-89
2022/06/20 22:19:35;;;;;;;19.38;13.35;;;23.30;99.90;;;;;;6190674;23;20013;-90
2022/06/20 22:22:12;;;;;;;19.93;12.93;;;23.20;99.90;;;;;;6190540;23;20040;-90
2022/06/20 22:24:47;;;;;;;16.70;13.48;;;23.10;99.90;;;;;;6190542;23;20267;-90
2022/06/20 22:27:24;;;;;;;19.65;14.60;;;23.10;99.90;;;;;;6190567;23;20005;-90
2022/06/20 22:29:56;;;;;;;21.85;14.30;;;23.00;99.90;;;;;;6190556;23;20012;-91
2022/06/20 22:32:41;;;;;;;17.15;13.00;;;23.00;99.90;;;;;;6190554;23;20013;-90
2022/06/20 22:35:20;;;;;;;18.35;14.45;;;23.00;99.90;;;;;;6190357;23;20028;-90
2022/06/20 22:38:12;;;;;;;20.42;14.77;;;22.90;99.90;;;;;;6190363;23;20012;-89
2022/06/20 22:40:50;;;;;;;21.05;14.57;;;22.90;99.90;;;;;;6105026;23;20013;-89
2022/06/20 22:43:22;;;;;;;20.92;14.98;;;22.80;99.90;;;;;;6082284;23;20018;-89
2022/06/20 22:46:02;;;;;;;18.70;15.13;;;22.70;99.90;;;;;;6079846;23;20096;-91
2022/06/20 22:48:34;;;;;;;17.17;15.35;;;22.60;99.90;;;;;;6078951;23;20390;-88
2022/06/20 22:51:14;;;;;;;20.30;14.75;;;22.60;99.90;;;;;;6078714;23;20093;-90
2022/06/20 22:53:51;;;;;;;24.17;16.38;;;22.60;99.90;;;;;;6102867;23;20376;-90
2022/06/20 22:56:35;;;;;;;18.77;14.75;;;22.60;99.90;;;;;;6078756;23;20090;-90
2022/06/20 22:59:21;;;;;;;26.27;15.33;;;22.50;99.90;;;;;;6078925;23;20006;-90
2022/06/20 23:02:00;;;;;;;20.42;14.80;;;22.50;99.90;;;;;;6078792;23;20033;-90
2022/06/20 23:04:30;;;;;;;23.45;15.60;;;22.40;99.90;;;;;;6078882;23;20039;-89
2022/06/20 23:06:57;;;;;;;20.30;15.20;;;22.50;99.90;;;;;;6127085;23;20005;-91
2022/06/20 23:09:24;;;;;;;22.10;14.95;;;22.40;99.90;;;;;;6078255;23;20029;-89
2022/06/20 23:11:53;;;;;;;17.67;14.48;;;22.40;99.90;;;;;;6078479;23;20448;-90
2022/06/20 23:14:20;;;;;;;22.88;14.98;;;22.40;99.90;;;;;;6078566;23;20006;-89
2022/06/20 23:19:40;;;;;;;18.17;15.20;;;22.30;99.90;;;;;;6217181;23;20012;-90
2022/06/20 23:22:28;;;;;;;19.63;15.05;;;22.40;99.90;;;;;;6192116;23;20016;-89
2022/06/20 23:24:58;;;;;;;19.52;15.20;;;22.40;99.90;;;;;;6192215;23;20009;-90
2022/06/20 23:27:26;;;;;;;19.73;15.07;;;22.40;99.90;;;;;;6194065;23;20009;-90
2022/06/20 23:30:05;;;;;;;18.50;16.10;;;22.30;99.90;;;;;;6194338;23;20032;-90
2022/06/20 23:32:32;;;;;;;16.67;14.25;;;22.40;99.90;;;;;;6191904;23;20009;-92
2022/06/20 23:35:07;;;;;;;19.08;15.40;;;22.40;99.90;;;;;;6191959;23;20449;-91
2022/06/20 23:37:36;;;;;;;20.17;15.52;;;22.30;99.90;;;;;;6191778;23;20019;-91
2022/06/20 23:40:06;;;;;;;22.75;14.82;;;22.30;99.90;;;;;;6192165;23;20067;-92
2022/06/20 23:42:36;;;;;;;22.83;15.35;;;22.30;99.90;;;;;;6191773;23;20013;-92
2022/06/20 23:45:05;;;;;;;18.52;14.63;;;22.30;99.90;;;;;;6191758;23;20008;-92
2022/06/20 23:47:35;;;;;;;19.23;14.82;;;22.30;99.90;;;;;;6191949;23;20012;-92
2022/06/20 23:50:10;;;;;;;20.15;14.55;;;22.30;99.90;;;;;;6195475;23;20001;-92
2022/06/20 23:52:37;;;;;;;18.40;15.00;;;22.30;99.90;;;;;;6199784;23;20016;-92
2022/06/20 23:55:04;;;;;;;19.08;15.13;;;22.30;99.90;;;;;;6221211;23;20134;-92
2022/06/20 23:57:31;;;;;;;20.60;15.02;;;22.20;99.90;;;;;;6196881;23;20016;-92
2022/06/20 23:59:59;;;;;;;21.27;15.10;;;22.20;99.90;;;;;;6196678;23;20000;-91
